sensor_id;sensor_type;location;lat;lon;timestamp;pressure;altitude;pressure_sealevel;temperature;humidity
73016;BME280;61893;50.074;14.440;2023-06-14T00:00:18;98249.38;;;11.91;76.57
73016;BME280;61893;50.074;14.440;2023-06-14T00:03:05;98252.53;;;11.87;76.97
73016;BME280;61893;50.074;14.440;2023-06-14T00:05:37;98247.03;;;11.88;77.01
73016;BME280;61893;50.074;14.440;2023-06-14T00:08:09;98252.00;;;11.83;77.09
73016;BME280;61893;50.074;14.440;2023-06-14T00:10:36;98254.03;;;11.89;77.09
73016;BME280;61893;50.074;14.440;2023-06-14T00:13:13;98258.88;;;11.86;77.14
73016;BME280;61893;50.074;14.440;2023-06-14T00:15:39;98257.03;;;11.86;76.92
73016;BME280;61893;50.074;14.440;2023-06-14T00:18:22;98249.34;;;11.75;77.73
73016;BME280;61893;50.074;14.440;2023-06-14T00:20:55;98258.16;;;11.84;77.38
73016;BME280;61893;50.074;14.440;2023-06-14T00:23:22;98256.31;;;11.84;77.26
73016;BME280;61893;50.074;14.440;2023-06-14T00:25:48;98252.81;;;11.76;77.35
73016;BME280;61893;50.074;14.440;2023-06-14T00:28:14;98254.00;;;11.73;77.49
73016;BME280;61893;50.074;14.440;2023-06-14T00:30:40;98255.34;;;11.77;77.56
73016;BME280;61893;50.074;14.440;2023-06-14T00:35:50;98252.81;;;11.67;78.33
73016;BME280;61893;50.074;14.440;2023-06-14T00:38:20;98243.34;;;11.65;77.76
73016;BME280;61893;50.074;14.440;2023-06-14T00:40:51;98248.50;;;11.58;78.10
73016;BME280;61893;50.074;14.440;2023-06-14T00:43:26;98240.50;;;11.66;77.68
73016;BME280;61893;50.074;14.440;2023-06-14T00:45:55;98243.50;;;11.71;76.69
73016;BME280;61893;50.074;14.440;2023-06-14T00:48:21;98248.34;;;11.68;76.74
73016;BME280;61893;50.074;14.440;2023-06-14T00:50:49;98252.00;;;11.75;76.71
73016;BME280;61893;50.074;14.440;2023-06-14T00:53:20;98255.19;;;11.70;76.23
73016;BME280;61893;50.074;14.440;2023-06-14T00:55:57;98247.81;;;11.64;76.58
73016;BME280;61893;50.074;14.440;2023-06-14T00:58:34;98245.81;;;11.50;76.79
73016;BME280;61893;50.074;14.440;2023-06-14T01:01:33;98247.84;;;11.56;76.25
73016;BME280;61893;50.074;14.440;2023-06-14T01:04:00;98233.50;;;11.41;77.03
73016;BME280;61893;50.074;14.440;2023-06-14T01:06:41;98237.00;;;11.33;75.97
73016;BME280;61893;50.074;14.440;2023-06-14T01:12:09;98240.69;;;11.48;75.65
73016;BME280;61893;50.074;14.440;2023-06-14T01:14:43;98242.81;;;11.37;76.16
73016;BME280;61893;50.074;14.440;2023-06-14T01:17:15;98240.81;;;11.39;76.45
73016;BME280;61893;50.074;14.440;2023-06-14T01:19:49;98244.81;;;11.35;76.74
73016;BME280;61893;50.074;14.440;2023-06-14T01:22:53;98237.84;;;11.34;77.37
73016;BME280;61893;50.074;14.440;2023-06-14T01:25:20;98241.66;;;11.39;77.45
73016;BME280;61893;50.074;14.440;2023-06-14T01:28:11;98229.84;;;11.34;78.19
73016;BME280;61893;50.074;14.440;2023-06-14T01:30:40;98232.00;;;11.22;78.33
73016;BME280;61893;50.074;14.440;2023-06-14T01:33:13;98237.16;;;11.32;78.10
73016;BME280;61893;50.074;14.440;2023-06-14T01:35:44;98237.81;;;11.25;78.43
73016;BME280;61893;50.074;14.440;2023-06-14T01:38:10;98235.47;;;11.22;78.83
73016;BME280;61893;50.074;14.440;2023-06-14T01:40:36;98239.31;;;11.20;78.99
73016;BME280;61893;50.074;14.440;2023-06-14T01:43:07;98240.81;;;11.22;79.13
73016;BME280;61893;50.074;14.440;2023-06-14T01:45:36;98241.47;;;11.16;79.57
73016;BME280;61893;50.074;14.440;2023-06-14T01:48:23;98240.44;;;11.09;80.52
73016;BME280;61893;50.074;14.440;2023-06-14T01:50:59;98229.44;;;11.12;80.79
73016;BME280;61893;50.074;14.440;2023-06-14T01:53:25;98247.13;;;11.13;80.93
73016;BME280;61893;50.074;14.440;2023-06-14T01:55:51;98242.41;;;11.07;81.12
73016;BME280;61893;50.074;14.440;2023-06-14T01:58:22;98239.75;;;10.99;81.74
73016;BME280;61893;50.074;14.440;2023-06-14T02:00:49;98238.06;;;10.98;81.83
73016;BME280;61893;50.074;14.440;2023-06-14T02:03:22;98249.22;;;11.01;82.14
73016;BME280;61893;50.074;14.440;2023-06-14T02:05:51;98249.75;;;11.05;82.08
73016;BME280;61893;50.074;14.440;2023-06-14T02:08:17;98246.88;;;10.98;82.34
73016;BME280;61893;50.074;14.440;2023-06-14T02:10:43;98240.91;;;10.96;82.55
73016;BME280;61893;50.074;14.440;2023-06-14T02:13:12;98248.94;;;11.04;82.62
73016;BME280;61893;50.074;14.440;2023-06-14T02:15:37;98241.41;;;11.00;82.59
73016;BME280;61893;50.074;14.440;2023-06-14T02:18:04;98246.22;;;10.88;83.08
73016;BME280;61893;50.074;14.440;2023-06-14T02:20:30;98249.41;;;11.00;82.91
73016;BME280;61893;50.074;14.440;2023-06-14T02:22:57;98246.38;;;10.95;82.89
73016;BME280;61893;50.074;14.440;2023-06-14T02:25:22;98245.72;;;11.01;82.88
73016;BME280;61893;50.074;14.440;2023-06-14T02:27:49;98251.03;;;10.93;82.98
73016;BME280;61893;50.074;14.440;2023-06-14T02:30:15;98253.03;;;10.91;83.28
73016;BME280;61893;50.074;14.440;2023-06-14T02:32:42;98250.38;;;10.91;83.42
73016;BME280;61893;50.074;14.440;2023-06-14T02:35:10;98257.97;;;10.77;84.25
73016;BME280;61893;50.074;14.440;2023-06-14T02:37:45;98250.00;;;10.77;83.93
73016;BME280;61893;50.074;14.440;2023-06-14T02:40:12;98255.63;;;10.74;84.15
73016;BME280;61893;50.074;14.440;2023-06-14T02:42:38;98257.59;;;10.72;83.61
73016;BME280;61893;50.074;14.440;2023-06-14T02:45:09;98254.81;;;10.74;83.85
73016;BME280;61893;50.074;14.440;2023-06-14T02:47:50;98252.28;;;10.72;84.17
73016;BME280;61893;50.074;14.440;2023-06-14T02:50:19;98261.78;;;10.75;84.20
73016;BME280;61893;50.074;14.440;2023-06-14T02:52:51;98259.28;;;10.73;84.26
73016;BME280;61893;50.074;14.440;2023-06-14T02:55:21;98260.09;;;10.66;84.44
73016;BME280;61893;50.074;14.440;2023-06-14T02:58:10;98259.75;;;10.69;84.49
73016;BME280;61893;50.074;14.440;2023-06-14T03:00:37;98259.03;;;10.58;84.71
73016;BME280;61893;50.074;14.440;2023-06-14T03:03:03;98263.44;;;10.68;84.31
73016;BME280;61893;50.074;14.440;2023-06-14T03:05:30;98266.56;;;10.63;84.45
73016;BME280;61893;50.074;14.440;2023-06-14T03:07:59;98270.41;;;10.69;83.97
73016;BME280;61893;50.074;14.440;2023-06-14T03:10:43;98262.38;;;10.60;84.52
73016;BME280;61893;50.074;14.440;2023-06-14T03:13:09;98266.09;;;10.68;84.28
73016;BME280;61893;50.074;14.440;2023-06-14T03:15:36;98273.22;;;10.67;83.79
73016;BME280;61893;50.074;14.440;2023-06-14T03:18:05;98275.03;;;10.67;84.31
73016;BME280;61893;50.074;14.440;2023-06-14T03:20:35;98273.84;;;10.61;84.31
73016;BME280;61893;50.074;14.440;2023-06-14T03:23:22;98272.38;;;10.67;83.78
73016;BME280;61893;50.074;14.440;2023-06-14T03:26:12;98277.38;;;10.70;83.47
73016;BME280;61893;50.074;14.440;2023-06-14T03:28:46;98272.44;;;10.75;83.20
73016;BME280;61893;50.074;14.440;2023-06-14T03:31:15;98275.09;;;10.75;82.60
73016;BME280;61893;50.074;14.440;2023-06-14T03:33:43;98277.59;;;10.76;82.35
73016;BME280;61893;50.074;14.440;2023-06-14T03:36:35;98277.94;;;10.73;82.40
73016;BME280;61893;50.074;14.440;2023-06-14T03:39:01;98284.94;;;10.82;81.93
73016;BME280;61893;50.074;14.440;2023-06-14T03:41:33;98288.28;;;10.85;81.75
73016;BME280;61893;50.074;14.440;2023-06-14T03:45:02;98301.75;;;11.34;79.95
73016;BME280;61893;50.074;14.440;2023-06-14T03:47:57;98300.19;;;12.78;74.23
73016;BME280;61893;50.074;14.440;2023-06-14T03:50:50;98297.41;;;13.11;71.94
73016;BME280;61893;50.074;14.440;2023-06-14T03:53:56;98310.69;;;12.08;75.88
73016;BME280;61893;50.074;14.440;2023-06-14T03:56:30;98308.69;;;11.93;76.97
73016;BME280;61893;50.074;14.440;2023-06-14T03:58:56;98305.84;;;12.28;76.09
73016;BME280;61893;50.074;14.440;2023-06-14T04:01:23;98305.47;;;12.47;75.04
73016;BME280;61893;50.074;14.440;2023-06-14T04:03:56;98307.56;;;13.55;71.62
73016;BME280;61893;50.074;14.440;2023-06-14T04:06:27;98305.47;;;14.79;66.12
73016;BME280;61893;50.074;14.440;2023-06-14T04:09:01;98309.53;;;15.92;62.40
73016;BME280;61893;50.074;14.440;2023-06-14T04:11:31;98310.84;;;16.52;59.80
73016;BME280;61893;50.074;14.440;2023-06-14T04:14:01;98311.03;;;17.14;57.42
73016;BME280;61893;50.074;14.440;2023-06-14T04:17:20;98314.88;;;18.20;54.19
73016;BME280;61893;50.074;14.440;2023-06-14T04:20:50;98316.16;;;19.23;51.17
73016;BME280;61893;50.074;14.440;2023-06-14T04:24:19;98312.75;;;19.92;47.88
73016;BME280;61893;50.074;14.440;2023-06-14T04:27:05;98311.25;;;19.51;48.42
73016;BME280;61893;50.074;14.440;2023-06-14T04:29:57;98313.59;;;18.69;49.92
73016;BME280;61893;50.074;14.440;2023-06-14T04:32:51;98315.38;;;19.16;48.96
73016;BME280;61893;50.074;14.440;2023-06-14T04:35:36;98316.75;;;19.31;48.41
73016;BME280;61893;50.074;14.440;2023-06-14T04:38:34;98310.94;;;18.23;50.70
73016;BME280;61893;50.074;14.440;2023-06-14T04:44:02;98319.78;;;16.59;56.27
73016;BME280;61893;50.074;14.440;2023-06-14T04:46:29;98318.78;;;16.60;55.71
73016;BME280;61893;50.074;14.440;2023-06-14T04:48:57;98319.84;;;16.38;56.35
73016;BME280;61893;50.074;14.440;2023-06-14T04:51:28;98322.53;;;17.42;54.06
73016;BME280;61893;50.074;14.440;2023-06-14T04:53:59;98321.81;;;19.08;49.66
73016;BME280;61893;50.074;14.440;2023-06-14T04:56:27;98327.44;;;19.58;47.51
73016;BME280;61893;50.074;14.440;2023-06-14T04:58:54;98326.75;;;19.24;47.71
73016;BME280;61893;50.074;14.440;2023-06-14T05:01:22;98324.56;;;19.53;47.35
73016;BME280;61893;50.074;14.440;2023-06-14T05:03:49;98324.66;;;19.26;46.97
73016;BME280;61893;50.074;14.440;2023-06-14T05:06:15;98326.44;;;19.52;47.34
73016;BME280;61893;50.074;14.440;2023-06-14T05:08:43;98325.16;;;21.37;43.61
73016;BME280;61893;50.074;14.440;2023-06-14T05:11:09;98325.59;;;21.82;41.48
73016;BME280;61893;50.074;14.440;2023-06-14T05:13:36;98322.88;;;21.15;43.06
73016;BME280;61893;50.074;14.440;2023-06-14T05:16:03;98328.84;;;20.62;43.79
73016;BME280;61893;50.074;14.440;2023-06-14T05:18:30;98330.91;;;21.22;42.94
73016;BME280;61893;50.074;14.440;2023-06-14T05:20:56;98325.53;;;21.41;41.73
73016;BME280;61893;50.074;14.440;2023-06-14T05:23:22;98335.38;;;20.48;44.57
73016;BME280;61893;50.074;14.440;2023-06-14T05:25:49;98335.81;;;21.13;42.77
73016;BME280;61893;50.074;14.440;2023-06-14T05:28:15;98334.47;;;19.59;46.07
73016;BME280;61893;50.074;14.440;2023-06-14T05:30:42;98335.34;;;18.28;49.93
73016;BME280;61893;50.074;14.440;2023-06-14T05:33:08;98331.44;;;18.17;50.23
73016;BME280;61893;50.074;14.440;2023-06-14T05:35:34;98339.19;;;17.72;51.59
73016;BME280;61893;50.074;14.440;2023-06-14T05:43:58;98346.47;;;20.90;44.33
73016;BME280;61893;50.074;14.440;2023-06-14T05:52:47;98339.88;;;26.13;33.13
73016;BME280;61893;50.074;14.440;2023-06-14T05:59:14;98337.59;;;24.61;35.81
73016;BME280;61893;50.074;14.440;2023-06-14T06:01:57;98331.56;;;22.92;38.65
73016;BME280;61893;50.074;14.440;2023-06-14T06:04:47;98347.28;;;19.84;44.51
73016;BME280;61893;50.074;14.440;2023-06-14T06:08:40;98343.00;;;18.98;47.32
73016;BME280;61893;50.074;14.440;2023-06-14T06:11:51;98353.97;;;19.68;46.12
73016;BME280;61893;50.074;14.440;2023-06-14T06:15:13;98363.28;;;19.20;47.33
73016;BME280;61893;50.074;14.440;2023-06-14T06:18:28;98354.81;;;18.97;48.88
73016;BME280;61893;50.074;14.440;2023-06-14T06:24:35;98375.09;;;19.26;48.44
73016;BME280;61893;50.074;14.440;2023-06-14T06:27:14;98374.41;;;19.44;48.46
73016;BME280;61893;50.074;14.440;2023-06-14T06:33:11;98381.59;;;18.92;49.02
73016;BME280;61893;50.074;14.440;2023-06-14T06:38:47;98385.78;;;20.04;47.10
73016;BME280;61893;50.074;14.440;2023-06-14T09:26:36;98443.97;;;26.59;29.15
73016;BME280;61893;50.074;14.440;2023-06-14T09:29:58;98434.63;;;25.23;31.23
73016;BME280;61893;50.074;14.440;2023-06-14T09:39:30;98433.63;;;24.44;33.62
73016;BME280;61893;50.074;14.440;2023-06-14T09:42:16;98436.47;;;25.17;31.99
73016;BME280;61893;50.074;14.440;2023-06-14T09:44:50;98436.19;;;24.39;34.05
73016;BME280;61893;50.074;14.440;2023-06-14T09:47:33;98426.78;;;23.61;34.73
73016;BME280;61893;50.074;14.440;2023-06-14T10:09:22;98417.63;;;22.19;36.02
73016;BME280;61893;50.074;14.440;2023-06-14T10:42:53;98400.44;;;20.78;36.76
73016;BME280;61893;50.074;14.440;2023-06-14T10:46:18;98408.41;;;22.39;36.11
73016;BME280;61893;50.074;14.440;2023-06-14T10:49:42;98407.53;;;22.26;35.94
73016;BME280;61893;50.074;14.440;2023-06-14T10:55:44;98398.25;;;22.34;34.62
73016;BME280;61893;50.074;14.440;2023-06-14T11:13:25;98387.16;;;23.25;33.65
73016;BME280;61893;50.074;14.440;2023-06-14T11:27:06;98394.16;;;20.84;36.44
73016;BME280;61893;50.074;14.440;2023-06-14T11:32:47;98393.53;;;21.07;36.53
73016;BME280;61893;50.074;14.440;2023-06-14T11:35:52;98387.22;;;21.13;35.11
73016;BME280;61893;50.074;14.440;2023-06-14T11:42:01;98383.88;;;22.34;34.26
73016;BME280;61893;50.074;14.440;2023-06-14T11:47:34;98374.59;;;21.81;33.53
73016;BME280;61893;50.074;14.440;2023-06-14T11:53:00;98382.03;;;21.30;35.48
73016;BME280;61893;50.074;14.440;2023-06-14T11:55:39;98383.84;;;21.18;35.78
73016;BME280;61893;50.074;14.440;2023-06-14T12:06:43;98373.91;;;21.30;34.91
73016;BME280;61893;50.074;14.440;2023-06-14T12:09:11;98369.06;;;21.39;35.13
73016;BME280;61893;50.074;14.440;2023-06-14T12:12:01;98369.88;;;21.21;34.43
73016;BME280;61893;50.074;14.440;2023-06-14T12:14:30;98361.06;;;21.26;34.21
73016;BME280;61893;50.074;14.440;2023-06-14T12:17:10;98371.66;;;21.09;34.22
73016;BME280;61893;50.074;14.440;2023-06-14T12:19:46;98371.09;;;21.00;34.36
73016;BME280;61893;50.074;14.440;2023-06-14T12:23:50;98369.00;;;20.59;34.17
73016;BME280;61893;50.074;14.440;2023-06-14T12:27:51;98365.69;;;20.82;34.58
73016;BME280;61893;50.074;14.440;2023-06-14T12:31:05;98358.34;;;21.81;35.18
73016;BME280;61893;50.074;14.440;2023-06-14T12:34:24;98367.75;;;21.60;36.43
73016;BME280;61893;50.074;14.440;2023-06-14T12:37:50;98366.16;;;21.34;37.01
73016;BME280;61893;50.074;14.440;2023-06-14T12:40:59;98357.16;;;21.58;36.64
73016;BME280;61893;50.074;14.440;2023-06-14T12:44:46;98360.78;;;21.52;36.69
73016;BME280;61893;50.074;14.440;2023-06-14T12:52:39;98371.88;;;21.26;35.81
73016;BME280;61893;50.074;14.440;2023-06-14T12:55:08;98372.31;;;21.04;33.73
73016;BME280;61893;50.074;14.440;2023-06-14T12:57:34;98376.16;;;20.72;33.02
73016;BME280;61893;50.074;14.440;2023-06-14T13:00:03;98370.75;;;20.72;34.83
73016;BME280;61893;50.074;14.440;2023-06-14T13:02:32;98370.75;;;20.72;36.30
73016;BME280;61893;50.074;14.440;2023-06-14T13:05:03;98371.25;;;20.87;36.87
73016;BME280;61893;50.074;14.440;2023-06-14T13:07:32;98367.44;;;20.95;36.56
73016;BME280;61893;50.074;14.440;2023-06-14T13:10:13;98364.72;;;21.38;35.53
73016;BME280;61893;50.074;14.440;2023-06-14T13:13:06;98370.84;;;21.45;35.55
73016;BME280;61893;50.074;14.440;2023-06-14T13:16:05;98370.97;;;21.13;35.86
73016;BME280;61893;50.074;14.440;2023-06-14T13:18:55;98372.91;;;21.50;35.30
73016;BME280;61893;50.074;14.440;2023-06-14T13:22:27;98375.44;;;21.26;35.13
73016;BME280;61893;50.074;14.440;2023-06-14T13:25:49;98376.09;;;21.22;34.18
73016;BME280;61893;50.074;14.440;2023-06-14T13:29:02;98376.84;;;21.29;33.93
73016;BME280;61893;50.074;14.440;2023-06-14T13:33:03;98376.00;;;21.28;33.39
73016;BME280;61893;50.074;14.440;2023-06-14T13:36:17;98375.78;;;21.11;33.19
73016;BME280;61893;50.074;14.440;2023-06-14T13:39:38;98369.78;;;21.09;34.62
73016;BME280;61893;50.074;14.440;2023-06-14T13:42:25;98364.75;;;21.31;34.22
73016;BME280;61893;50.074;14.440;2023-06-14T13:45:27;98361.81;;;21.51;34.71
73016;BME280;61893;50.074;14.440;2023-06-14T13:49:00;98368.66;;;21.35;35.30
73016;BME280;61893;50.074;14.440;2023-06-14T13:51:58;98366.34;;;21.39;35.12
73016;BME280;61893;50.074;14.440;2023-06-14T13:55:29;98369.53;;;21.11;36.88
73016;BME280;61893;50.074;14.440;2023-06-14T13:57:58;98376.91;;;21.04;37.37
73016;BME280;61893;50.074;14.440;2023-06-14T14:00:49;98361.38;;;21.54;36.22
73016;BME280;61893;50.074;14.440;2023-06-14T14:03:29;98363.03;;;21.37;36.04
73016;BME280;61893;50.074;14.440;2023-06-14T14:05:58;98373.47;;;21.15;36.56
73016;BME280;61893;50.074;14.440;2023-06-14T14:08:44;98373.81;;;21.00;37.57
73016;BME280;61893;50.074;14.440;2023-06-14T14:11:16;98365.59;;;20.70;38.10
73016;BME280;61893;50.074;14.440;2023-06-14T14:13:55;98372.06;;;20.87;37.90
73016;BME280;61893;50.074;14.440;2023-06-14T14:16:30;98375.50;;;20.76;37.53
73016;BME280;61893;50.074;14.440;2023-06-14T14:19:35;98371.09;;;20.82;37.64
73016;BME280;61893;50.074;14.440;2023-06-14T14:22:06;98378.38;;;20.56;38.24
73016;BME280;61893;50.074;14.440;2023-06-14T14:24:36;98372.69;;;20.64;38.37
73016;BME280;61893;50.074;14.440;2023-06-14T14:27:02;98374.59;;;20.32;38.89
73016;BME280;61893;50.074;14.440;2023-06-14T14:29:49;98380.69;;;20.21;38.80
73016;BME280;61893;50.074;14.440;2023-06-14T14:32:53;98385.53;;;20.12;39.09
73016;BME280;61893;50.074;14.440;2023-06-14T14:35:55;98387.09;;;19.88;40.21
73016;BME280;61893;50.074;14.440;2023-06-14T14:38:47;98380.56;;;19.64;40.16
73016;BME280;61893;50.074;14.440;2023-06-14T14:41:44;98386.81;;;19.58;40.60
73016;BME280;61893;50.074;14.440;2023-06-14T14:44:27;98383.09;;;19.46;40.82
73016;BME280;61893;50.074;14.440;2023-06-14T14:47:33;98388.47;;;19.59;40.57
73016;BME280;61893;50.074;14.440;2023-06-14T14:50:43;98382.06;;;19.47;40.71
73016;BME280;61893;50.074;14.440;2023-06-14T14:53:36;98389.09;;;19.61;39.89
73016;BME280;61893;50.074;14.440;2023-06-14T14:56:46;98385.13;;;19.64;39.83
73016;BME280;61893;50.074;14.440;2023-06-14T14:59:33;98383.88;;;19.59;39.32
73016;BME280;61893;50.074;14.440;2023-06-14T15:02:27;98378.56;;;19.40;39.69
73016;BME280;61893;50.074;14.440;2023-06-14T15:05:10;98387.09;;;19.43;39.92
73016;BME280;61893;50.074;14.440;2023-06-14T15:07:51;98376.09;;;19.31;39.81
73016;BME280;61893;50.074;14.440;2023-06-14T15:10:18;98373.41;;;19.31;39.91
73016;BME280;61893;50.074;14.440;2023-06-14T15:12:46;98374.84;;;19.41;39.32
73016;BME280;61893;50.074;14.440;2023-06-14T15:17:44;98379.75;;;19.57;39.43
73016;BME280;61893;50.074;14.440;2023-06-14T15:23:13;98376.44;;;20.00;38.64
73016;BME280;61893;50.074;14.440;2023-06-14T15:25:54;98381.44;;;20.03;38.57
73016;BME280;61893;50.074;14.440;2023-06-14T15:28:41;98381.69;;;19.95;38.56
73016;BME280;61893;50.074;14.440;2023-06-14T15:31:10;98378.13;;;20.01;38.05
73016;BME280;61893;50.074;14.440;2023-06-14T15:33:36;98381.69;;;19.95;38.36
73016;BME280;61893;50.074;14.440;2023-06-14T15:36:59;98382.03;;;20.05;37.72
73016;BME280;61893;50.074;14.440;2023-06-14T15:39:43;98379.94;;;20.39;37.28
73016;BME280;61893;50.074;14.440;2023-06-14T15:45:16;98378.91;;;20.90;35.78
73016;BME280;61893;50.074;14.440;2023-06-14T15:48:16;98379.66;;;20.97;35.28
73016;BME280;61893;50.074;14.440;2023-06-14T15:51:15;98370.59;;;20.66;35.54
73016;BME280;61893;50.074;14.440;2023-06-14T15:53:41;98370.25;;;20.56;35.77
73016;BME280;61893;50.074;14.440;2023-06-14T15:56:09;98363.00;;;20.50;35.53
73016;BME280;61893;50.074;14.440;2023-06-14T15:58:38;98362.78;;;20.27;36.21
73016;BME280;61893;50.074;14.440;2023-06-14T16:01:58;98357.97;;;19.97;37.30
73016;BME280;61893;50.074;14.440;2023-06-14T16:04:43;98361.84;;;20.08;37.20
73016;BME280;61893;50.074;14.440;2023-06-14T16:07:13;98360.28;;;20.57;36.75
73016;BME280;61893;50.074;14.440;2023-06-14T16:10:01;98365.75;;;20.75;35.93
73016;BME280;61893;50.074;14.440;2023-06-14T16:12:35;98372.91;;;20.88;36.09
73016;BME280;61893;50.074;14.440;2023-06-14T16:15:01;98364.03;;;20.81;36.28
73016;BME280;61893;50.074;14.440;2023-06-14T16:17:42;98365.41;;;20.90;36.20
73016;BME280;61893;50.074;14.440;2023-06-14T16:20:10;98374.41;;;20.84;36.23
73016;BME280;61893;50.074;14.440;2023-06-14T16:22:36;98374.69;;;20.94;36.53
73016;BME280;61893;50.074;14.440;2023-06-14T16:25:03;98366.84;;;20.92;36.51
73016;BME280;61893;50.074;14.440;2023-06-14T16:27:30;98373.25;;;20.73;37.15
73016;BME280;61893;50.074;14.440;2023-06-14T16:29:56;98376.41;;;20.88;36.67
73016;BME280;61893;50.074;14.440;2023-06-14T16:32:22;98370.63;;;20.85;37.43
73016;BME280;61893;50.074;14.440;2023-06-14T16:34:48;98360.75;;;21.15;37.09
73016;BME280;61893;50.074;14.440;2023-06-14T16:39:47;98364.59;;;20.64;37.67
73016;BME280;61893;50.074;14.440;2023-06-14T16:42:13;98363.63;;;20.52;38.36
73016;BME280;61893;50.074;14.440;2023-06-14T16:44:39;98370.72;;;20.53;38.41
73016;BME280;61893;50.074;14.440;2023-06-14T16:47:06;98372.75;;;20.58;38.30
73016;BME280;61893;50.074;14.440;2023-06-14T16:49:34;98382.56;;;20.20;38.78
73016;BME280;61893;50.074;14.440;2023-06-14T16:52:03;98382.28;;;19.97;38.91
73016;BME280;61893;50.074;14.440;2023-06-14T16:54:29;98379.81;;;19.95;38.91
73016;BME280;61893;50.074;14.440;2023-06-14T16:56:55;98386.22;;;19.94;38.78
73016;BME280;61893;50.074;14.440;2023-06-14T16:59:24;98388.34;;;19.92;39.42
73016;BME280;61893;50.074;14.440;2023-06-14T17:02:27;98389.31;;;19.66;37.36
73016;BME280;61893;50.074;14.440;2023-06-14T17:04:58;98392.00;;;19.66;38.01
73016;BME280;61893;50.074;14.440;2023-06-14T17:07:33;98388.25;;;19.61;38.32
73016;BME280;61893;50.074;14.440;2023-06-14T17:10:26;98396.63;;;19.39;38.96
73016;BME280;61893;50.074;14.440;2023-06-14T17:13:16;98392.91;;;19.33;39.59
73016;BME280;61893;50.074;14.440;2023-06-14T17:16:10;98397.47;;;19.33;39.67
73016;BME280;61893;50.074;14.440;2023-06-14T17:18:56;98390.66;;;19.24;40.61
73016;BME280;61893;50.074;14.440;2023-06-14T17:21:58;98396.03;;;19.17;40.77
73016;BME280;61893;50.074;14.440;2023-06-14T17:24:44;98407.25;;;19.14;40.90
73016;BME280;61893;50.074;14.440;2023-06-14T17:27:25;98403.16;;;19.11;41.30
73016;BME280;61893;50.074;14.440;2023-06-14T17:30:02;98408.34;;;19.06;41.56
73016;BME280;61893;50.074;14.440;2023-06-14T17:32:28;98409.16;;;18.94;42.00
73016;BME280;61893;50.074;14.440;2023-06-14T17:34:54;98411.44;;;18.97;42.16
73016;BME280;61893;50.074;14.440;2023-06-14T17:37:21;98409.38;;;18.85;42.50
73016;BME280;61893;50.074;14.440;2023-06-14T17:39:50;98407.69;;;18.71;43.01
73016;BME280;61893;50.074;14.440;2023-06-14T17:42:16;98414.72;;;18.65;43.50
73016;BME280;61893;50.074;14.440;2023-06-14T17:44:43;98413.06;;;18.51;43.63
73016;BME280;61893;50.074;14.440;2023-06-14T17:47:09;98412.44;;;18.42;44.02
73016;BME280;61893;50.074;14.440;2023-06-14T17:49:38;98414.31;;;18.42;44.44
73016;BME280;61893;50.074;14.440;2023-06-14T17:52:05;98412.66;;;18.41;44.49
73016;BME280;61893;50.074;14.440;2023-06-14T17:54:32;98411.84;;;18.40;44.88
73016;BME280;61893;50.074;14.440;2023-06-14T17:56:58;98418.47;;;18.38;44.61
73016;BME280;61893;50.074;14.440;2023-06-14T17:59:26;98416.19;;;18.41;45.16
73016;BME280;61893;50.074;14.440;2023-06-14T18:01:52;98416.38;;;18.33;45.27
73016;BME280;61893;50.074;14.440;2023-06-14T18:04:19;98418.44;;;18.24;45.94
73016;BME280;61893;50.074;14.440;2023-06-14T18:06:45;98413.00;;;18.11;46.48
73016;BME280;61893;50.074;14.440;2023-06-14T18:09:15;98415.91;;;18.03;47.02
73016;BME280;61893;50.074;14.440;2023-06-14T18:11:42;98414.47;;;18.14;46.74
73016;BME280;61893;50.074;14.440;2023-06-14T18:14:08;98419.84;;;18.07;46.86
73016;BME280;61893;50.074;14.440;2023-06-14T18:16:34;98427.28;;;18.05;47.00
73016;BME280;61893;50.074;14.440;2023-06-14T18:19:02;98418.38;;;17.98;47.58
73016;BME280;61893;50.074;14.440;2023-06-14T18:21:29;98424.97;;;17.89;48.15
73016;BME280;61893;50.074;14.440;2023-06-14T18:23:57;98422.84;;;17.77;48.54
73016;BME280;61893;50.074;14.440;2023-06-14T18:26:24;98419.97;;;17.79;48.70
73016;BME280;61893;50.074;14.440;2023-06-14T18:28:53;98424.88;;;17.69;49.11
73016;BME280;61893;50.074;14.440;2023-06-14T18:31:20;98423.34;;;17.60;49.61
73016;BME280;61893;50.074;14.440;2023-06-14T18:34:01;98427.09;;;17.59;49.58
73016;BME280;61893;50.074;14.440;2023-06-14T18:36:28;98421.88;;;17.50;50.10
73016;BME280;61893;50.074;14.440;2023-06-14T18:38:56;98426.66;;;17.48;50.27
73016;BME280;61893;50.074;14.440;2023-06-14T18:41:37;98429.13;;;17.50;50.17
73016;BME280;61893;50.074;14.440;2023-06-14T18:44:17;98425.38;;;17.44;50.14
73016;BME280;61893;50.074;14.440;2023-06-14T18:46:43;98427.81;;;17.39;50.35
73016;BME280;61893;50.074;14.440;2023-06-14T18:49:09;98423.72;;;17.43;50.53
73016;BME280;61893;50.074;14.440;2023-06-14T18:51:35;98431.53;;;17.38;50.70
73016;BME280;61893;50.074;14.440;2023-06-14T18:54:05;98428.38;;;17.28;50.80
73016;BME280;61893;50.074;14.440;2023-06-14T18:56:31;98436.97;;;17.17;50.94
73016;BME280;61893;50.074;14.440;2023-06-14T18:58:59;98430.84;;;17.23;51.10
73016;BME280;61893;50.074;14.440;2023-06-14T19:01:56;98432.84;;;17.14;51.05
73016;BME280;61893;50.074;14.440;2023-06-14T19:04:50;98439.78;;;17.02;51.47
73016;BME280;61893;50.074;14.440;2023-06-14T19:07:40;98440.97;;;16.93;51.82
73016;BME280;61893;50.074;14.440;2023-06-14T19:10:14;98436.81;;;16.90;51.64
73016;BME280;61893;50.074;14.440;2023-06-14T19:12:40;98444.28;;;16.95;51.77
73016;BME280;61893;50.074;14.440;2023-06-14T19:15:09;98439.94;;;16.72;52.28
73016;BME280;61893;50.074;14.440;2023-06-14T19:17:37;98440.47;;;16.82;52.14